sensor_id;sensor_type;location;lat;lon;timestamp;temperature;humidity
77218;DHT22;66214;51.302;17.068;2024-03-23T05:03:58;9.20;80.75
77218;DHT22;66214;51.302;17.068;2024-03-23T05:06:27;9.21;80.87
77218;DHT22;66214;51.302;17.068;2024-03-23T05:08:55;9.18;81.21
77218;DHT22;66214;51.302;17.068;2024-03-23T05:11:22;9.15;81.42
77218;DHT22;66214;51.302;17.068;2024-03-23T05:13:50;9.14;81.67
77218;DHT22;66214;51.302;17.068;2024-03-23T05:16:18;9.12;81.66
77218;DHT22;66214;51.302;17.068;2024-03-23T05:18:46;9.10;81.51
77218;DHT22;66214;51.302;17.068;2024-03-23T05:21:14;9.08;81.36
77218;DHT22;66214;51.302;17.068;2024-03-23T05:23:42;9.08;81.17
77218;DHT22;66214;51.302;17.068;2024-03-23T05:26:10;9.10;81.24
77218;DHT22;66214;51.302;17.068;2024-03-23T05:28:38;9.10;81.53
77218;DHT22;66214;51.302;17.068;2024-03-23T05:31:07;9.10;81.89
77218;DHT22;66214;51.302;17.068;2024-03-23T05:33:36;9.09;81.91
77218;DHT22;66214;51.302;17.068;2024-03-23T05:36:07;9.08;81.77
77218;DHT22;66214;51.302;17.068;2024-03-23T05:38:38;9.08;81.61
77218;DHT22;66214;51.302;17.068;2024-03-23T05:41:06;9.07;81.51
77218;DHT22;66214;51.302;17.068;2024-03-23T05:43:34;9.10;81.63
77218;DHT22;66214;51.302;17.068;2024-03-23T05:46:02;9.13;81.85
77218;DHT22;66214;51.302;17.068;2024-03-23T05:48:31;9.15;82.00
77218;DHT22;66214;51.302;17.068;2024-03-23T05:51:00;9.20;82.10
77218;DHT22;66214;51.302;17.068;2024-03-23T05:53:28;9.24;81.97
77218;DHT22;66214;51.302;17.068;2024-03-23T05:56:01;9.26;81.72
77218;DHT22;66214;51.302;17.068;2024-03-23T05:58:37;9.27;81.56
77218;DHT22;66214;51.302;17.068;2024-03-23T06:01:04;9.27;81.47
77218;DHT22;66214;51.302;17.068;2024-03-23T06:03:32;9.28;81.69
77218;DHT22;66214;51.302;17.068;2024-03-23T06:06:00;9.30;81.86
77218;DHT22;66214;51.302;17.068;2024-03-23T06:08:28;9.32;82.08
77218;DHT22;66214;51.302;17.068;2024-03-23T06:10:56;9.34;82.08
77218;DHT22;66214;51.302;17.068;2024-03-23T06:13:24;9.37;81.99
77218;DHT22;66214;51.302;17.068;2024-03-23T06:15:57;9.37;81.75
77218;DHT22;66214;51.302;17.068;2024-03-23T06:18:26;9.36;81.56
77218;DHT22;66214;51.302;17.068;2024-03-23T06:20:54;9.38;81.42
77218;DHT22;66214;51.302;17.068;2024-03-23T06:23:22;9.38;81.57
77218;DHT22;66214;51.302;17.068;2024-03-23T06:25:50;9.38;81.81
77218;DHT22;66214;51.302;17.068;2024-03-23T06:28:18;9.39;82.00
77218;DHT22;66214;51.302;17.068;2024-03-23T06:30:45;9.40;82.16
77218;DHT22;66214;51.302;17.068;2024-03-23T06:33:13;9.43;82.04
77218;DHT22;66214;51.302;17.068;2024-03-23T06:35:42;9.50;81.92
77218;DHT22;66214;51.302;17.068;2024-03-23T06:38:10;9.55;81.78
77218;DHT22;66214;51.302;17.068;2024-03-23T06:40:38;9.56;81.66
77218;DHT22;66214;51.302;17.068;2024-03-23T06:43:06;9.58;81.81
77218;DHT22;66214;51.302;17.068;2024-03-23T06:45:34;9.59;81.91
77218;DHT22;66214;51.302;17.068;2024-03-23T06:48:01;9.67;81.98
77218;DHT22;66214;51.302;17.068;2024-03-23T06:50:30;9.76;81.95
77218;DHT22;66214;51.302;17.068;2024-03-23T06:52:59;9.86;81.66
77218;DHT22;66214;51.302;17.068;2024-03-23T06:55:29;9.95;81.46
77218;DHT22;66214;51.302;17.068;2024-03-23T06:57:57;10.04;81.23
77218;DHT22;66214;51.302;17.068;2024-03-23T07:00:25;10.14;81.27
77218;DHT22;66214;51.302;17.068;2024-03-23T07:02:53;10.31;81.29
77218;DHT22;66214;51.302;17.068;2024-03-23T07:05:20;10.43;81.09
77218;DHT22;66214;51.302;17.068;2024-03-23T07:07:49;10.50;80.28
77218;DHT22;66214;51.302;17.068;2024-03-23T07:10:17;10.56;79.50
77218;DHT22;66214;51.302;17.068;2024-03-23T07:12:45;10.66;79.14
77218;DHT22;66214;51.302;17.068;2024-03-23T07:15:13;10.76;78.84
77218;DHT22;66214;51.302;17.068;2024-03-23T07:17:41;10.86;78.60
77218;DHT22;66214;51.302;17.068;2024-03-23T07:20:09;10.97;78.42
77218;DHT22;66214;51.302;17.068;2024-03-23T07:22:38;11.06;78.42
77218;DHT22;66214;51.302;17.068;2024-03-23T07:25:07;11.14;78.10
77218;DHT22;66214;51.302;17.068;2024-03-23T07:27:35;11.22;77.27
77218;DHT22;66214;51.302;17.068;2024-03-23T07:30:03;11.28;76.72
77218;DHT22;66214;51.302;17.068;2024-03-23T07:35:48;11.48;76.55
77218;DHT22;66214;51.302;17.068;2024-03-23T07:38:16;11.60;76.40
77218;DHT22;66214;51.302;17.068;2024-03-23T07:40:44;11.70;76.50
77218;DHT22;66214;51.302;17.068;2024-03-23T07:43:12;11.79;76.08
77218;DHT22;66214;51.302;17.068;2024-03-23T07:45:39;11.89;75.76
77218;DHT22;66214;51.302;17.068;2024-03-23T07:48:07;11.97;75.39
77218;DHT22;66214;51.302;17.068;2024-03-23T07:50:35;12.05;74.90
77218;DHT22;66214;51.302;17.068;2024-03-23T07:53:03;12.21;74.89
77218;DHT22;66214;51.302;17.068;2024-03-23T07:55:31;12.47;74.63
77218;DHT22;66214;51.302;17.068;2024-03-23T07:57:59;12.73;74.50
77218;DHT22;66214;51.302;17.068;2024-03-23T08:03:59;13.12;73.39
77218;DHT22;66214;51.302;17.068;2024-03-23T08:06:27;13.21;72.88
77218;DHT22;66214;51.302;17.068;2024-03-23T08:08:55;13.28;72.31
77218;DHT22;66214;51.302;17.068;2024-03-23T08:11:29;13.36;71.67
77218;DHT22;66214;51.302;17.068;2024-03-23T08:13:59;13.47;71.61
77218;DHT22;66214;51.302;17.068;2024-03-23T08:16:27;13.55;71.44
77218;DHT22;66214;51.302;17.068;2024-03-23T08:18:55;13.59;71.47
77218;DHT22;66214;51.302;17.068;2024-03-23T08:21:23;13.58;71.79
77218;DHT22;66214;51.302;17.068;2024-03-23T08:23:53;13.65;71.71
77218;DHT22;66214;51.302;17.068;2024-03-23T08:26:21;13.67;71.04
77218;DHT22;66214;51.302;17.068;2024-03-23T08:28:49;13.69;70.66
77218;DHT22;66214;51.302;17.068;2024-03-23T08:31:17;13.74;70.48
77218;DHT22;66214;51.302;17.068;2024-03-23T08:33:45;13.87;70.28
77218;DHT22;66214;51.302;17.068;2024-03-23T08:36:13;14.02;69.84
77218;DHT22;66214;51.302;17.068;2024-03-23T08:38:44;14.06;69.86
77218;DHT22;66214;51.302;17.068;2024-03-23T08:41:12;14.15;69.68
77218;DHT22;66214;51.302;17.068;2024-03-23T08:43:40;14.17;69.66
77218;DHT22;66214;51.302;17.068;2024-03-23T08:46:10;14.11;69.17
77218;DHT22;66214;51.302;17.068;2024-03-23T08:48:43;14.10;69.35
77218;DHT22;66214;51.302;17.068;2024-03-23T08:51:13;14.26;68.43
77218;DHT22;66214;51.302;17.068;2024-03-23T08:53:44;14.35;67.65
77218;DHT22;66214;51.302;17.068;2024-03-23T08:56:13;14.43;67.38
77218;DHT22;66214;51.302;17.068;2024-03-23T08:58:41;14.58;67.18
77218;DHT22;66214;51.302;17.068;2024-03-23T09:01:09;14.94;66.90
77218;DHT22;66214;51.302;17.068;2024-03-23T09:03:41;15.35;66.61
77218;DHT22;66214;51.302;17.068;2024-03-23T09:06:13;15.55;66.21
77218;DHT22;66214;51.302;17.068;2024-03-23T09:08:42;15.52;64.83
77218;DHT22;66214;51.302;17.068;2024-03-23T09:11:11;15.41;64.40
77218;DHT22;66214;51.302;17.068;2024-03-23T09:13:40;15.25;64.29
77218;DHT22;66214;51.302;17.068;2024-03-23T09:19:41;15.09;65.40
77218;DHT22;66214;51.302;17.068;2024-03-23T09:22:09;15.12;65.28
77218;DHT22;66214;51.302;17.068;2024-03-23T09:24:38;15.14;65.32
77218;DHT22;66214;51.302;17.068;2024-03-23T09:27:06;15.12;65.36
77218;DHT22;66214;51.302;17.068;2024-03-23T09:29:35;15.11;65.30
77218;DHT22;66214;51.302;17.068;2024-03-23T09:32:04;15.10;65.37
77218;DHT22;66214;51.302;17.068;2024-03-23T09:34:33;15.09;65.52
77218;DHT22;66214;51.302;17.068;2024-03-23T09:37:02;15.07;65.51
77218;DHT22;66214;51.302;17.068;2024-03-23T09:39:30;15.02;65.78
77218;DHT22;66214;51.302;17.068;2024-03-23T09:41:59;14.99;65.77
77218;DHT22;66214;51.302;17.068;2024-03-23T09:44:28;14.93;65.69
77218;DHT22;66214;51.302;17.068;2024-03-23T09:46:56;14.86;65.35
77218;DHT22;66214;51.302;17.068;2024-03-23T09:49:25;14.79;65.13
77218;DHT22;66214;51.302;17.068;2024-03-23T09:51:53;14.81;65.40
77218;DHT22;66214;51.302;17.068;2024-03-23T09:54:23;14.84;65.40
77218;DHT22;66214;51.302;17.068;2024-03-23T09:56:52;14.80;65.27
77218;DHT22;66214;51.302;17.068;2024-03-23T09:59:20;14.73;65.27
77218;DHT22;66214;51.302;17.068;2024-03-23T10:01:48;14.67;65.47
77218;DHT22;66214;51.302;17.068;2024-03-23T10:04:36;14.63;65.59
77218;DHT22;66214;51.302;17.068;2024-03-23T10:07:13;14.59;65.92
77218;DHT22;66214;51.302;17.068;2024-03-23T10:09:44;14.58;66.64
77218;DHT22;66214;51.302;17.068;2024-03-23T10:12:16;14.55;67.06
77218;DHT22;66214;51.302;17.068;2024-03-23T10:14:46;14.46;67.17
77218;DHT22;66214;51.302;17.068;2024-03-23T10:19:46;14.19;67.35
77218;DHT22;66214;51.302;17.068;2024-03-23T10:22:21;14.08;67.65
77218;DHT22;66214;51.302;17.068;2024-03-23T10:24:50;14.02;67.92
77218;DHT22;66214;51.302;17.068;2024-03-23T10:27:19;13.97;68.13
77218;DHT22;66214;51.302;17.068;2024-03-23T10:29:49;13.91;68.30
77218;DHT22;66214;51.302;17.068;2024-03-23T10:32:17;13.88;68.61
77218;DHT22;66214;51.302;17.068;2024-03-23T10:34:46;13.95;69.26
77218;DHT22;66214;51.302;17.068;2024-03-23T10:37:14;14.10;69.66
77218;DHT22;66214;51.302;17.068;2024-03-23T10:39:42;14.31;69.82
77218;DHT22;66214;51.302;17.068;2024-03-23T10:42:10;14.52;69.60
77218;DHT22;66214;51.302;17.068;2024-03-23T10:44:38;14.89;69.11
77218;DHT22;66214;51.302;17.068;2024-03-23T10:47:06;15.75;68.34
77218;DHT22;66214;51.302;17.068;2024-03-23T10:49:35;16.28;67.53
77218;DHT22;66214;51.302;17.068;2024-03-23T10:52:03;16.52;67.12
77218;DHT22;66214;51.302;17.068;2024-03-23T10:54:33;16.84;66.63
77218;DHT22;66214;51.302;17.068;2024-03-23T10:59:36;17.24;64.28
77218;DHT22;66214;51.302;17.068;2024-03-23T11:03:58;17.32;63.60
77218;DHT22;66214;51.302;17.068;2024-03-23T11:06:36;17.39;63.06
77218;DHT22;66214;51.302;17.068;2024-03-23T11:14:52;17.69;61.61
77218;DHT22;66214;51.302;17.068;2024-03-23T11:17:21;17.52;61.40
77218;DHT22;66214;51.302;17.068;2024-03-23T11:22:46;17.42;60.73
77218;DHT22;66214;51.302;17.068;2024-03-23T11:25:17;17.39;60.53
77218;DHT22;66214;51.302;17.068;2024-03-23T11:27:54;17.45;60.42
77218;DHT22;66214;51.302;17.068;2024-03-23T11:30:25;17.55;60.28
77218;DHT22;66214;51.302;17.068;2024-03-23T11:32:58;17.69;59.73
77218;DHT22;66214;51.302;17.068;2024-03-23T11:38:22;17.76;58.25
77218;DHT22;66214;51.302;17.068;2024-03-23T11:40:49;17.67;58.61
77218;DHT22;66214;51.302;17.068;2024-03-23T11:43:18;17.62;58.47
77218;DHT22;66214;51.302;17.068;2024-03-23T11:45:49;17.58;58.29
77218;DHT22;66214;51.302;17.068;2024-03-23T11:48:20;17.60;58.46
77218;DHT22;66214;51.302;17.068;2024-03-23T11:50:51;17.92;58.65
77218;DHT22;66214;51.302;17.068;2024-03-23T11:53:25;18.24;58.54
77218;DHT22;66214;51.302;17.068;2024-03-23T11:55:57;18.38;58.37
77218;DHT22;66214;51.302;17.068;2024-03-23T11:58:27;18.33;57.38
77218;DHT22;66214;51.302;17.068;2024-03-23T12:01:02;18.12;57.10
77218;DHT22;66214;51.302;17.068;2024-03-23T12:03:31;17.87;57.34
77218;DHT22;66214;51.302;17.068;2024-03-23T12:06:03;17.69;57.86
77218;DHT22;66214;51.302;17.068;2024-03-23T12:08:33;17.51;58.44
77218;DHT22;66214;51.302;17.068;2024-03-23T12:11:06;17.37;58.90
77218;DHT22;66214;51.302;17.068;2024-03-23T12:13:39;17.32;59.12
77218;DHT22;66214;51.302;17.068;2024-03-23T12:16:12;17.19;58.35
77218;DHT22;66214;51.302;17.068;2024-03-23T12:18:47;17.13;58.46
77218;DHT22;66214;51.302;17.068;2024-03-23T12:21:17;17.26;58.96
77218;DHT22;66214;51.302;17.068;2024-03-23T12:23:45;17.42;58.04
77218;DHT22;66214;51.302;17.068;2024-03-23T12:26:16;17.48;57.98
77218;DHT22;66214;51.302;17.068;2024-03-23T12:28:45;17.62;57.04
77218;DHT22;66214;51.302;17.068;2024-03-23T12:31:13;17.75;55.60
77218;DHT22;66214;51.302;17.068;2024-03-23T12:33:41;17.82;54.51
77218;DHT22;66214;51.302;17.068;2024-03-23T12:39:32;17.37;55.64
77218;DHT22;66214;51.302;17.068;2024-03-23T12:42:02;17.15;56.14
77218;DHT22;66214;51.302;17.068;2024-03-23T12:44:31;16.89;56.77
77218;DHT22;66214;51.302;17.068;2024-03-23T12:46:59;16.66;57.02
77218;DHT22;66214;51.302;17.068;2024-03-23T12:49:27;16.48;57.38
77218;DHT22;66214;51.302;17.068;2024-03-23T12:52:00;16.30;57.46
77218;DHT22;66214;51.302;17.068;2024-03-23T12:54:29;16.22;57.76
77218;DHT22;66214;51.302;17.068;2024-03-23T12:56:58;16.00;58.97
77218;DHT22;66214;51.302;17.068;2024-03-23T12:59:27;15.66;60.40
77218;DHT22;66214;51.302;17.068;2024-03-23T13:01:56;15.20;62.13
77218;DHT22;66214;51.302;17.068;2024-03-23T13:04:24;14.77;64.69
77218;DHT22;66214;51.302;17.068;2024-03-23T13:06:52;14.33;67.36
77218;DHT22;66214;51.302;17.068;2024-03-23T13:09:20;13.82;69.32
77218;DHT22;66214;51.302;17.068;2024-03-23T13:11:48;13.39;69.61
77218;DHT22;66214;51.302;17.068;2024-03-23T13:14:16;13.20;69.90
77218;DHT22;66214;51.302;17.068;2024-03-23T13:16:44;13.10;69.89
77218;DHT22;66214;51.302;17.068;2024-03-23T13:19:12;12.96;69.90
77218;DHT22;66214;51.302;17.068;2024-03-23T13:21:40;12.88;70.05
77218;DHT22;66214;51.302;17.068;2024-03-23T13:27:39;12.94;69.94
77218;DHT22;66214;51.302;17.068;2024-03-23T13:30:07;13.05;69.50
77218;DHT22;66214;51.302;17.068;2024-03-23T13:32:36;13.06;69.35
77218;DHT22;66214;51.302;17.068;2024-03-23T13:35:05;13.21;68.69
77218;DHT22;66214;51.302;17.068;2024-03-23T13:37:34;13.38;67.52
77218;DHT22;66214;51.302;17.068;2024-03-23T13:40:07;13.45;66.89
77218;DHT22;66214;51.302;17.068;2024-03-23T13:42:38;13.45;66.59
77218;DHT22;66214;51.302;17.068;2024-03-23T13:45:06;13.27;65.58
77218;DHT22;66214;51.302;17.068;2024-03-23T13:47:34;13.14;65.06
77218;DHT22;66214;51.302;17.068;2024-03-23T13:50:02;13.21;64.49
77218;DHT22;66214;51.302;17.068;2024-03-23T13:52:31;13.12;64.34
77218;DHT22;66214;51.302;17.068;2024-03-23T13:54:59;12.77;64.64
77218;DHT22;66214;51.302;17.068;2024-03-23T13:57:27;12.52;65.23
77218;DHT22;66214;51.302;17.068;2024-03-23T13:59:55;12.16;66.11
77218;DHT22;66214;51.302;17.068;2024-03-23T14:03:58;11.69;67.61
77218;DHT22;66214;51.302;17.068;2024-03-23T14:06:26;11.38;68.53
77218;DHT22;66214;51.302;17.068;2024-03-23T14:08:54;10.91;69.28
77218;DHT22;66214;51.302;17.068;2024-03-23T14:11:22;10.48;70.04
77218;DHT22;66214;51.302;17.068;2024-03-23T14:13:50;10.17;70.69
77218;DHT22;66214;51.302;17.068;2024-03-23T14:16:18;9.87;71.72
77218;DHT22;66214;51.302;17.068;2024-03-23T14:18:46;9.55;73.09
77218;DHT22;66214;51.302;17.068;2024-03-23T14:21:15;9.22;74.29
77218;DHT22;66214;51.302;17.068;2024-03-23T14:23:43;8.88;75.23
77218;DHT22;66214;51.302;17.068;2024-03-23T14:26:10;8.57;75.95
77218;DHT22;66214;51.302;17.068;2024-03-23T14:28:39;8.31;76.08
77218;DHT22;66214;51.302;17.068;2024-03-23T14:31:06;8.07;76.19
77218;DHT22;66214;51.302;17.068;2024-03-23T14:33:38;7.95;75.90
77218;DHT22;66214;51.302;17.068;2024-03-23T14:36:14;7.85;75.51
77218;DHT22;66214;51.302;17.068;2024-03-23T14:38:42;7.75;75.40
77218;DHT22;66214;51.302;17.068;2024-03-23T14:41:10;7.69;75.86
77218;DHT22;66214;51.302;17.068;2024-03-23T14:43:38;7.68;75.65
77218;DHT22;66214;51.302;17.068;2024-03-23T14:46:06;7.62;75.53
77218;DHT22;66214;51.302;17.068;2024-03-23T14:48:43;7.52;75.58
77218;DHT22;66214;51.302;17.068;2024-03-23T14:51:13;7.46;75.70
77218;DHT22;66214;51.302;17.068;2024-03-23T14:53:44;7.36;76.16
77218;DHT22;66214;51.302;17.068;2024-03-23T14:56:13;7.35;76.46
77218;DHT22;66214;51.302;17.068;2024-03-23T14:58:43;7.31;76.69
77218;DHT22;66214;51.302;17.068;2024-03-23T15:01:13;7.27;76.59
77218;DHT22;66214;51.302;17.068;2024-03-23T15:06:57;7.14;76.92
77218;DHT22;66214;51.302;17.068;2024-03-23T15:09:25;7.11;76.68
77218;DHT22;66214;51.302;17.068;2024-03-23T15:11:53;7.09;76.55
77218;DHT22;66214;51.302;17.068;2024-03-23T15:14:24;7.07;76.52
77218;DHT22;66214;51.302;17.068;2024-03-23T15:16:52;7.05;76.24
77218;DHT22;66214;51.302;17.068;2024-03-23T15:19:24;7.02;76.40
77218;DHT22;66214;51.302;17.068;2024-03-23T15:21:52;6.97;76.78
77218;DHT22;66214;51.302;17.068;2024-03-23T15:24:20;6.89;77.23
77218;DHT22;66214;51.302;17.068;2024-03-23T15:26:48;6.76;77.51
77218;DHT22;66214;51.302;17.068;2024-03-23T15:29:17;6.64;77.49
77218;DHT22;66214;51.302;17.068;2024-03-23T15:31:46;6.53;77.34
77218;DHT22;66214;51.302;17.068;2024-03-23T15:34:14;6.45;77.24
77218;DHT22;66214;51.302;17.068;2024-03-23T15:36:43;6.39;77.18
77218;DHT22;66214;51.302;17.068;2024-03-23T15:39:12;6.33;77.63
77218;DHT22;66214;51.302;17.068;2024-03-23T15:41:43;6.28;77.50
77218;DHT22;66214;51.302;17.068;2024-03-23T15:44:13;6.26;77.47
77218;DHT22;66214;51.302;17.068;2024-03-23T15:46:41;6.25;77.21
77218;DHT22;66214;51.302;17.068;2024-03-23T15:49:09;6.23;76.95
77218;DHT22;66214;51.302;17.068;2024-03-23T15:51:37;6.21;76.60
77218;DHT22;66214;51.302;17.068;2024-03-23T15:54:07;6.23;76.33
77218;DHT22;66214;51.302;17.068;2024-03-23T15:56:39;6.26;76.40
77218;DHT22;66214;51.302;17.068;2024-03-23T15:59:07;6.29;76.15
77218;DHT22;66214;51.302;17.068;2024-03-23T16:01:34;6.29;75.76
77218;DHT22;66214;51.302;17.068;2024-03-23T16:04:02;6.30;75.49
77218;DHT22;66214;51.302;17.068;2024-03-23T16:06:31;6.30;75.46
77218;DHT22;66214;51.302;17.068;2024-03-23T16:12:30;6.33;76.32
77218;DHT22;66214;51.302;17.068;2024-03-23T16:14:58;6.35;76.17
77218;DHT22;66214;51.302;17.068;2024-03-23T16:17:26;6.36;75.71
77218;DHT22;66214;51.302;17.068;2024-03-23T16:19:54;6.33;75.37
77218;DHT22;66214;51.302;17.068;2024-03-23T16:22:23;6.29;75.23
77218;DHT22;66214;51.302;17.068;2024-03-23T16:24:51;6.27;75.41
77218;DHT22;66214;51.302;17.068;2024-03-23T16:27:19;6.26;75.61
77218;DHT22;66214;51.302;17.068;2024-03-23T16:29:47;6.27;75.92
77218;DHT22;66214;51.302;17.068;2024-03-23T16:35:55;6.30;75.69
77218;DHT22;66214;51.302;17.068;2024-03-23T16:38:24;6.27;75.15
77218;DHT22;66214;51.302;17.068;2024-03-23T16:44:25;6.21;74.84
77218;DHT22;66214;51.302;17.068;2024-03-23T16:46:53;6.20;74.45
77218;DHT22;66214;51.302;17.068;2024-03-23T16:49:21;6.15;73.67
77218;DHT22;66214;51.302;17.068;2024-03-23T16:51:49;6.10;73.24
77218;DHT22;66214;51.302;17.068;2024-03-23T16:57:34;5.96;73.03
77218;DHT22;66214;51.302;17.068;2024-03-23T17:00:05;5.89;72.91
77218;DHT22;66214;51.302;17.068;2024-03-23T17:03:58;5.74;73.29
77218;DHT22;66214;51.302;17.068;2024-03-23T17:06:28;5.69;73.53
77218;DHT22;66214;51.302;17.068;2024-03-23T17:08:56;5.64;73.91
77218;DHT22;66214;51.302;17.068;2024-03-23T17:11:24;5.61;73.86
77218;DHT22;66214;51.302;17.068;2024-03-23T17:13:52;5.60;73.86
77218;DHT22;66214;51.302;17.068;2024-03-23T17:16:26;5.58;73.75
77218;DHT22;66214;51.302;17.068;2024-03-23T17:18:58;5.56;73.80
77218;DHT22;66214;51.302;17.068;2024-03-23T17:21:26;5.53;73.92
77218;DHT22;66214;51.302;17.068;2024-03-23T17:23:55;5.52;74.25
77218;DHT22;66214;51.302;17.068;2024-03-23T17:26:24;5.51;74.42
77218;DHT22;66214;51.302;17.068;2024-03-23T17:28:53;5.49;74.22
77218;DHT22;66214;51.302;17.068;2024-03-23T17:34:44;5.44;74.09
77218;DHT22;66214;51.302;17.068;2024-03-23T17:37:12;5.42;73.88
77218;DHT22;66214;51.302;17.068;2024-03-23T17:39:40;5.40;73.86
77218;DHT22;66214;51.302;17.068;2024-03-23T17:42:08;5.39;74.18
77218;DHT22;66214;51.302;17.068;2024-03-23T17:44:37;5.41;74.49
77218;DHT22;66214;51.302;17.068;2024-03-23T17:47:06;5.41;74.50
77218;DHT22;66214;51.302;17.068;2024-03-23T17:49:34;5.40;74.11
77218;DHT22;66214;51.302;17.068;2024-03-23T17:52:08;5.34;73.77
77218;DHT22;66214;51.302;17.068;2024-03-23T17:54:40;5.30;73.51
77218;DHT22;66214;51.302;17.068;2024-03-23T17:57:12;5.24;73.32
77218;DHT22;66214;51.302;17.068;2024-03-23T17:59:39;5.20;73.16
77218;DHT22;66214;51.302;17.068;2024-03-23T18:02:07;5.16;73.17
77218;DHT22;66214;51.302;17.068;2024-03-23T18:04:35;5.12;73.25
77218;DHT22;66214;51.302;17.068;2024-03-23T18:07:03;5.09;73.63
77218;DHT22;66214;51.302;17.068;2024-03-23T18:09:31;5.09;73.99
77218;DHT22;66214;51.302;17.068;2024-03-23T18:11:59;5.09;74.28
77218;DHT22;66214;51.302;17.068;2024-03-23T18:14:28;5.08;74.10
77218;DHT22;66214;51.302;17.068;2024-03-23T18:16:56;5.06;73.92
77218;DHT22;66214;51.302;17.068;2024-03-23T18:19:24;5.05;73.67
77218;DHT22;66214;51.302;17.068;2024-03-23T18:21:52;5.03;73.53
77218;DHT22;66214;51.302;17.068;2024-03-23T18:24:21;5.02;73.36
77218;DHT22;66214;51.302;17.068;2024-03-23T18:26:50;4.98;73.31
77218;DHT22;66214;51.302;17.068;2024-03-23T18:29:19;4.96;73.27
77218;DHT22;66214;51.302;17.068;2024-03-23T18:31:48;4.92;73.30
77218;DHT22;66214;51.302;17.068;2024-03-23T18:34:17;4.91;73.80
77218;DHT22;66214;51.302;17.068;2024-03-23T18:36:45;4.91;74.24
77218;DHT22;66214;51.302;17.068;2024-03-23T18:39:13;4.92;74.59
77218;DHT22;66214;51.302;17.068;2024-03-23T18:41:41;4.92;74.48
77218;DHT22;66214;51.302;17.068;2024-03-23T18:44:10;4.93;74.13
77218;DHT22;66214;51.302;17.068;2024-03-23T18:46:37;4.92;73.87
77218;DHT22;66214;51.302;17.068;2024-03-23T18:49:06;4.91;73.65
77218;DHT22;66214;51.302;17.068;2024-03-23T18:51:34;4.91;73.46
77218;DHT22;66214;51.302;17.068;2024-03-23T18:54:02;4.90;73.34
77218;DHT22;66214;51.302;17.068;2024-03-23T18:56:31;4.86;73.26
77218;DHT22;66214;51.302;17.068;2024-03-23T18:58:59;4.83;73.34
77218;DHT22;66214;51.302;17.068;2024-03-23T19:01:27;4.80;73.73
77218;DHT22;66214;51.302;17.068;2024-03-23T19:03:55;4.81;74.24
77218;DHT22;66214;51.302;17.068;2024-03-23T19:06:23;4.81;74.66
77218;DHT22;66214;51.302;17.068;2024-03-23T19:08:51;4.83;74.86
77218;DHT22;66214;51.302;17.068;2024-03-23T19:11:19;4.86;74.79
77218;DHT22;66214;51.302;17.068;2024-03-23T19:13:47;4.86;74.63
77218;DHT22;66214;51.302;17.068;2024-03-23T19:16:14;4.86;74.43
77218;DHT22;66214;51.302;17.068;2024-03-23T19:18:43;4.86;74.29
77218;DHT22;66214;51.302;17.068;2024-03-23T19:21:13;4.86;74.16
77218;DHT22;66214;51.302;17.068;2024-03-23T19:23:41;4.86;73.98
77218;DHT22;66214;51.302;17.068;2024-03-23T19:26:09;4.84;73.89
77218;DHT22;66214;51.302;17.068;2024-03-23T19:28:37;4.80;73.82
77218;DHT22;66214;51.302;17.068;2024-03-23T19:31:04;4.76;73.85
77218;DHT22;66214;51.302;17.068;2024-03-23T19:33:35;4.73;73.97
77218;DHT22;66214;51.302;17.068;2024-03-23T19:36:03;4.72;74.39
77218;DHT22;66214;51.302;17.068;2024-03-23T19:38:32;4.72;74.77
77218;DHT22;66214;51.302;17.068;2024-03-23T19:41:00;4.71;75.21
77218;DHT22;66214;51.302;17.068;2024-03-23T19:43:28;4.73;75.48
77218;DHT22;66214;51.302;17.068;2024-03-23T19:46:02;4.76;75.45
77218;DHT22;66214;51.302;17.068;2024-03-23T19:48:31;4.79;75.25
77218;DHT22;66214;51.302;17.068;2024-03-23T19:50:59;4.78;75.04
77218;DHT22;66214;51.302;17.068;2024-03-23T19:53:28;4.76;74.89
77218;DHT22;66214;51.302;17.068;2024-03-23T19:55:56;4.74;74.76
77218;DHT22;66214;51.302;17.068;2024-03-23T19:58:28;4.72;74.69
77218;DHT22;66214;51.302;17.068;2024-03-23T20:00:56;4.69;74.60
77218;DHT22;66214;51.302;17.068;2024-03-23T20:03:24;4.65;74.64
77218;DHT22;66214;51.302;17.068;2024-03-23T20:05:58;4.61;74.62
77218;DHT22;66214;51.302;17.068;2024-03-23T20:08:26;4.56;74.73
77218;DHT22;66214;51.302;17.068;2024-03-23T20:10:54;4.57;75.10
77218;DHT22;66214;51.302;17.068;2024-03-23T20:13:22;4.57;75.66
77218;DHT22;66214;51.302;17.068;2024-03-23T20:15:52;4.57;76.19
77218;DHT22;66214;51.302;17.068;2024-03-23T20:18:29;4.57;76.38
77218;DHT22;66214;51.302;17.068;2024-03-23T20:21:00;4.54;76.57
77218;DHT22;66214;51.302;17.068;2024-03-23T20:23:31;4.50;76.42
77218;DHT22;66214;51.302;17.068;2024-03-23T20:25:59;4.47;76.40
77218;DHT22;66214;51.302;17.068;2024-03-23T20:28:27;4.44;76.54
77218;DHT22;66214;51.302;17.068;2024-03-23T20:30:59;4.40;76.76
77218;DHT22;66214;51.302;17.068;2024-03-23T20:33:30;4.36;77.34
77218;DHT22;66214;51.302;17.068;2024-03-23T20:35:58;4.35;77.76
77218;DHT22;66214;51.302;17.068;2024-03-23T20:38:27;4.32;77.77
77218;DHT22;66214;51.302;17.068;2024-03-23T20:40:55;4.28;77.73
77218;DHT22;66214;51.302;17.068;2024-03-23T20:43:26;4.25;77.81
77218;DHT22;66214;51.302;17.068;2024-03-23T20:48:27;4.20;78.38
77218;DHT22;66214;51.302;17.068;2024-03-23T20:50:59;4.21;78.50
77218;DHT22;66214;51.302;17.068;2024-03-23T20:53:30;4.19;78.65
77218;DHT22;66214;51.302;17.068;2024-03-23T20:56:01;4.18;78.43
77218;DHT22;66214;51.302;17.068;2024-03-23T20:58:30;4.16;78.19
77218;DHT22;66214;51.302;17.068;2024-03-23T21:01:00;4.15;77.85
77218;DHT22;66214;51.302;17.068;2024-03-23T21:03:29;4.12;78.03
77218;DHT22;66214;51.302;17.068;2024-03-23T21:05:59;4.09;78.66
77218;DHT22;66214;51.302;17.068;2024-03-23T21:08:30;4.09;78.97
77218;DHT22;66214;51.302;17.068;2024-03-23T21:10:58;4.09;79.40
77218;DHT22;66214;51.302;17.068;2024-03-23T21:13:30;4.08;79.49
77218;DHT22;66214;51.302;17.068;2024-03-23T21:16:01;4.05;79.59
77218;DHT22;66214;51.302;17.068;2024-03-23T21:18:30;4.03;79.52
77218;DHT22;66214;51.302;17.068;2024-03-23T21:21:00;4.04;79.62
77218;DHT22;66214;51.302;17.068;2024-03-23T21:23:30;4.05;79.74
77218;DHT22;66214;51.302;17.068;2024-03-23T21:26:02;4.05;79.91
77218;DHT22;66214;51.302;17.068;2024-03-23T21:28:32;4.03;80.07
77218;DHT22;66214;51.302;17.068;2024-03-23T21:31:04;4.03;79.83
77218;DHT22;66214;51.302;17.068;2024-03-23T21:33:36;4.02;79.60
77218;DHT22;66214;51.302;17.068;2024-03-23T21:36:04;4.02;79.82
77218;DHT22;66214;51.302;17.068;2024-03-23T21:38:32;4.03;79.90
77218;DHT22;66214;51.302;17.068;2024-03-23T21:41:00;4.03;80.20